sensor_id;sensor_type;location;lat;lon;timestamp;P1;durP1;ratioP1;P2;durP2;ratioP2
3189;SDS011;1606;51.946;10.558;2023-02-15T00:01:48;26.53;;;14.47;;
3189;SDS011;1606;51.946;10.558;2023-02-15T00:04:18;28.20;;;12.70;;
3189;SDS011;1606;51.946;10.558;2023-02-15T00:06:48;34.47;;;14.00;;
3189;SDS011;1606;51.946;10.558;2023-02-15T00:09:16;23.97;;;12.53;;
3189;SDS011;1606;51.946;10.558;2023-02-15T00:11:44;26.07;;;14.03;;
3189;SDS011;1606;51.946;10.558;2023-02-15T00:14:17;24.20;;;12.70;;
3189;SDS011;1606;51.946;10.558;2023-02-15T00:16:46;27.23;;;13.00;;
3189;SDS011;1606;51.946;10.558;2023-02-15T00:19:15;23.63;;;14.20;;
3189;SDS011;1606;51.946;10.558;2023-02-15T00:21:46;23.10;;;13.53;;
3189;SDS011;1606;51.946;10.558;2023-02-15T00:24:15;22.40;;;11.63;;
3189;SDS011;1606;51.946;10.558;2023-02-15T00:26:45;18.90;;;11.60;;
3189;SDS011;1606;51.946;10.558;2023-02-15T00:29:17;22.73;;;12.53;;
3189;SDS011;1606;51.946;10.558;2023-02-15T00:31:45;20.40;;;12.20;;
3189;SDS011;1606;51.946;10.558;2023-02-15T00:34:15;19.50;;;11.40;;
3189;SDS011;1606;51.946;10.558;2023-02-15T00:36:45;19.67;;;10.50;;
3189;SDS011;1606;51.946;10.558;2023-02-15T00:39:14;19.27;;;11.40;;
3189;SDS011;1606;51.946;10.558;2023-02-15T00:41:42;18.97;;;11.00;;
3189;SDS011;1606;51.946;10.558;2023-02-15T00:44:11;19.60;;;11.40;;
3189;SDS011;1606;51.946;10.558;2023-02-15T00:46:39;18.47;;;10.80;;
3189;SDS011;1606;51.946;10.558;2023-02-15T00:49:07;17.10;;;10.57;;
3189;SDS011;1606;51.946;10.558;2023-02-15T00:51:37;18.73;;;10.37;;
3189;SDS011;1606;51.946;10.558;2023-02-15T00:54:05;15.23;;;8.90;;
3189;SDS011;1606;51.946;10.558;2023-02-15T00:56:33;18.73;;;9.60;;
3189;SDS011;1606;51.946;10.558;2023-02-15T00:59:01;16.37;;;9.00;;
3189;SDS011;1606;51.946;10.558;2023-02-15T01:01:29;18.27;;;10.83;;
3189;SDS011;1606;51.946;10.558;2023-02-15T01:03:57;16.97;;;10.83;;
3189;SDS011;1606;51.946;10.558;2023-02-15T01:06:24;17.37;;;10.70;;
3189;SDS011;1606;51.946;10.558;2023-02-15T01:08:54;17.47;;;10.00;;
3189;SDS011;1606;51.946;10.558;2023-02-15T01:11:22;15.60;;;9.20;;
3189;SDS011;1606;51.946;10.558;2023-02-15T01:13:50;20.27;;;10.40;;
3189;SDS011;1606;51.946;10.558;2023-02-15T01:16:19;18.27;;;10.03;;
3189;SDS011;1606;51.946;10.558;2023-02-15T01:18:49;15.47;;;9.43;;
3189;SDS011;1606;51.946;10.558;2023-02-15T01:21:17;17.30;;;9.90;;
3189;SDS011;1606;51.946;10.558;2023-02-15T01:23:47;18.97;;;10.80;;
3189;SDS011;1606;51.946;10.558;2023-02-15T01:26:16;20.60;;;11.27;;
3189;SDS011;1606;51.946;10.558;2023-02-15T01:28:44;15.97;;;9.73;;
3189;SDS011;1606;51.946;10.558;2023-02-15T01:31:15;16.80;;;10.20;;
3189;SDS011;1606;51.946;10.558;2023-02-15T01:33:45;19.47;;;11.03;;
3189;SDS011;1606;51.946;10.558;2023-02-15T01:36:13;20.60;;;12.80;;
3189;SDS011;1606;51.946;10.558;2023-02-15T01:38:43;20.23;;;11.60;;
3189;SDS011;1606;51.946;10.558;2023-02-15T01:41:11;19.40;;;11.07;;
3189;SDS011;1606;51.946;10.558;2023-02-15T01:43:52;17.73;;;10.90;;
3189;SDS011;1606;51.946;10.558;2023-02-15T01:46:22;18.30;;;10.43;;
3189;SDS011;1606;51.946;10.558;2023-02-15T01:48:54;19.07;;;9.97;;
3189;SDS011;1606;51.946;10.558;2023-02-15T01:51:27;15.20;;;9.90;;
3189;SDS011;1606;51.946;10.558;2023-02-15T01:53:59;20.07;;;11.50;;
3189;SDS011;1606;51.946;10.558;2023-02-15T01:56:30;16.80;;;10.20;;
3189;SDS011;1606;51.946;10.558;2023-02-15T01:59:04;16.33;;;9.97;;
3189;SDS011;1606;51.946;10.558;2023-02-15T02:01:36;16.70;;;8.30;;
3189;SDS011;1606;51.946;10.558;2023-02-15T02:04:07;15.10;;;9.00;;
3189;SDS011;1606;51.946;10.558;2023-02-15T02:06:40;16.73;;;8.93;;
3189;SDS011;1606;51.946;10.558;2023-02-15T02:09:08;18.37;;;9.40;;
3189;SDS011;1606;51.946;10.558;2023-02-15T02:11:37;18.47;;;9.77;;
3189;SDS011;1606;51.946;10.558;2023-02-15T02:14:08;17.17;;;8.97;;
3189;SDS011;1606;51.946;10.558;2023-02-15T02:16:38;17.97;;;9.23;;
3189;SDS011;1606;51.946;10.558;2023-02-15T02:19:19;15.83;;;8.73;;
3189;SDS011;1606;51.946;10.558;2023-02-15T02:22:36;22.10;;;8.10;;
3189;SDS011;1606;51.946;10.558;2023-02-15T02:25:52;13.90;;;7.93;;
3189;SDS011;1606;51.946;10.558;2023-02-15T02:29:03;13.70;;;7.30;;
3189;SDS011;1606;51.946;10.558;2023-02-15T02:31:55;13.50;;;6.23;;
3189;SDS011;1606;51.946;10.558;2023-02-15T02:34:47;13.80;;;7.80;;
3189;SDS011;1606;51.946;10.558;2023-02-15T02:37:22;17.30;;;7.17;;
3189;SDS011;1606;51.946;10.558;2023-02-15T02:39:55;16.27;;;8.43;;
3189;SDS011;1606;51.946;10.558;2023-02-15T02:42:32;25.93;;;8.77;;
3189;SDS011;1606;51.946;10.558;2023-02-15T02:45:06;18.73;;;7.30;;
3189;SDS011;1606;51.946;10.558;2023-02-15T02:47:36;15.17;;;7.37;;
3189;SDS011;1606;51.946;10.558;2023-02-15T02:50:12;21.15;;;8.43;;
3189;SDS011;1606;51.946;10.558;2023-02-15T02:52:42;18.13;;;7.60;;
3189;SDS011;1606;51.946;10.558;2023-02-15T02:55:12;15.00;;;6.90;;
3189;SDS011;1606;51.946;10.558;2023-02-15T02:57:45;14.47;;;7.77;;
3189;SDS011;1606;51.946;10.558;2023-02-15T03:00:18;11.80;;;6.47;;
3189;SDS011;1606;51.946;10.558;2023-02-15T03:02:48;11.23;;;6.40;;
3189;SDS011;1606;51.946;10.558;2023-02-15T03:05:22;12.50;;;6.57;;
3189;SDS011;1606;51.946;10.558;2023-02-15T03:07:54;12.37;;;6.53;;
3189;SDS011;1606;51.946;10.558;2023-02-15T03:10:24;10.60;;;5.40;;
3189;SDS011;1606;51.946;10.558;2023-02-15T03:12:52;11.73;;;5.43;;
3189;SDS011;1606;51.946;10.558;2023-02-15T03:15:21;13.33;;;6.90;;
3189;SDS011;1606;51.946;10.558;2023-02-15T03:18:13;13.13;;;6.53;;
3189;SDS011;1606;51.946;10.558;2023-02-15T03:20:45;12.23;;;5.80;;
3189;SDS011;1606;51.946;10.558;2023-02-15T03:23:15;11.40;;;5.17;;
3189;SDS011;1606;51.946;10.558;2023-02-15T03:25:48;17.50;;;7.40;;
3189;SDS011;1606;51.946;10.558;2023-02-15T03:28:20;14.60;;;6.10;;
3189;SDS011;1606;51.946;10.558;2023-02-15T03:30:53;10.53;;;5.43;;
3189;SDS011;1606;51.946;10.558;2023-02-15T03:33:24;14.50;;;6.30;;
3189;SDS011;1606;51.946;10.558;2023-02-15T03:35:57;11.10;;;6.00;;
3189;SDS011;1606;51.946;10.558;2023-02-15T03:38:33;14.20;;;5.53;;
3189;SDS011;1606;51.946;10.558;2023-02-15T03:41:06;10.33;;;5.63;;
3189;SDS011;1606;51.946;10.558;2023-02-15T03:43:40;13.30;;;6.80;;
3189;SDS011;1606;51.946;10.558;2023-02-15T03:46:13;13.03;;;6.27;;
3189;SDS011;1606;51.946;10.558;2023-02-15T03:48:47;11.37;;;5.20;;
3189;SDS011;1606;51.946;10.558;2023-02-15T03:51:21;12.00;;;7.40;;
3189;SDS011;1606;51.946;10.558;2023-02-15T03:54:03;11.43;;;6.03;;
3189;SDS011;1606;51.946;10.558;2023-02-15T03:56:34;10.20;;;5.27;;
3189;SDS011;1606;51.946;10.558;2023-02-15T03:59:03;9.73;;;4.53;;
3189;SDS011;1606;51.946;10.558;2023-02-15T04:01:52;10.40;;;5.20;;
3189;SDS011;1606;51.946;10.558;2023-02-15T04:04:28;13.77;;;6.20;;
3189;SDS011;1606;51.946;10.558;2023-02-15T04:07:03;12.53;;;5.57;;
3189;SDS011;1606;51.946;10.558;2023-02-15T04:09:33;10.00;;;4.80;;
3189;SDS011;1606;51.946;10.558;2023-02-15T04:12:30;9.47;;;4.50;;
3189;SDS011;1606;51.946;10.558;2023-02-15T04:14:58;10.47;;;5.40;;
3189;SDS011;1606;51.946;10.558;2023-02-15T04:17:43;11.10;;;5.50;;
3189;SDS011;1606;51.946;10.558;2023-02-15T04:20:11;12.50;;;5.40;;
3189;SDS011;1606;51.946;10.558;2023-02-15T04:22:58;13.30;;;6.10;;
3189;SDS011;1606;51.946;10.558;2023-02-15T04:25:43;19.03;;;5.70;;
3189;SDS011;1606;51.946;10.558;2023-02-15T04:28:11;13.07;;;6.17;;
3189;SDS011;1606;51.946;10.558;2023-02-15T04:30:39;14.83;;;6.53;;
3189;SDS011;1606;51.946;10.558;2023-02-15T04:33:06;12.60;;;4.90;;
3189;SDS011;1606;51.946;10.558;2023-02-15T04:35:34;12.00;;;5.17;;
3189;SDS011;1606;51.946;10.558;2023-02-15T04:38:03;12.77;;;4.90;;
3189;SDS011;1606;51.946;10.558;2023-02-15T04:40:31;9.77;;;4.80;;
3189;SDS011;1606;51.946;10.558;2023-02-15T04:42:59;11.53;;;5.17;;
3189;SDS011;1606;51.946;10.558;2023-02-15T04:45:26;9.77;;;4.33;;
3189;SDS011;1606;51.946;10.558;2023-02-15T04:47:54;11.73;;;4.53;;
3189;SDS011;1606;51.946;10.558;2023-02-15T04:50:22;10.07;;;4.67;;
3189;SDS011;1606;51.946;10.558;2023-02-15T04:52:50;7.90;;;3.90;;
3189;SDS011;1606;51.946;10.558;2023-02-15T04:55:19;9.20;;;4.57;;
3189;SDS011;1606;51.946;10.558;2023-02-15T04:57:46;9.50;;;4.70;;
3189;SDS011;1606;51.946;10.558;2023-02-15T05:00:14;9.70;;;5.17;;
3189;SDS011;1606;51.946;10.558;2023-02-15T05:02:42;9.10;;;4.50;;
3189;SDS011;1606;51.946;10.558;2023-02-15T05:05:10;10.67;;;4.20;;
3189;SDS011;1606;51.946;10.558;2023-02-15T05:07:41;9.05;;;4.63;;
3189;SDS011;1606;51.946;10.558;2023-02-15T05:10:09;12.23;;;5.10;;
3189;SDS011;1606;51.946;10.558;2023-02-15T05:12:38;9.37;;;4.07;;
3189;SDS011;1606;51.946;10.558;2023-02-15T05:15:06;11.30;;;4.67;;
3189;SDS011;1606;51.946;10.558;2023-02-15T05:17:35;9.97;;;3.97;;
3189;SDS011;1606;51.946;10.558;2023-02-15T05:20:04;9.93;;;4.57;;
3189;SDS011;1606;51.946;10.558;2023-02-15T05:22:32;9.07;;;4.20;;
3189;SDS011;1606;51.946;10.558;2023-02-15T05:25:00;9.37;;;4.67;;
3189;SDS011;1606;51.946;10.558;2023-02-15T05:27:47;9.17;;;4.20;;
3189;SDS011;1606;51.946;10.558;2023-02-15T05:30:32;9.33;;;4.20;;
3189;SDS011;1606;51.946;10.558;2023-02-15T05:33:01;9.87;;;4.00;;
3189;SDS011;1606;51.946;10.558;2023-02-15T05:35:28;8.30;;;3.50;;
3189;SDS011;1606;51.946;10.558;2023-02-15T05:37:56;8.80;;;4.20;;
3189;SDS011;1606;51.946;10.558;2023-02-15T05:40:24;10.00;;;4.30;;
3189;SDS011;1606;51.946;10.558;2023-02-15T05:42:53;10.07;;;4.97;;
3189;SDS011;1606;51.946;10.558;2023-02-15T05:45:20;9.20;;;4.57;;
3189;SDS011;1606;51.946;10.558;2023-02-15T05:47:48;8.80;;;3.73;;
3189;SDS011;1606;51.946;10.558;2023-02-15T05:50:16;8.60;;;3.53;;
3189;SDS011;1606;51.946;10.558;2023-02-15T05:52:44;7.47;;;3.50;;
3189;SDS011;1606;51.946;10.558;2023-02-15T05:55:12;8.87;;;3.90;;
3189;SDS011;1606;51.946;10.558;2023-02-15T05:57:40;9.33;;;4.07;;
3189;SDS011;1606;51.946;10.558;2023-02-15T06:00:09;11.10;;;4.03;;
3189;SDS011;1606;51.946;10.558;2023-02-15T06:02:39;7.63;;;3.87;;
3189;SDS011;1606;51.946;10.558;2023-02-15T06:05:08;9.20;;;3.80;;
3189;SDS011;1606;51.946;10.558;2023-02-15T06:07:36;7.70;;;3.00;;
3189;SDS011;1606;51.946;10.558;2023-02-15T06:10:04;9.67;;;3.70;;
3189;SDS011;1606;51.946;10.558;2023-02-15T06:12:32;12.30;;;3.83;;
3189;SDS011;1606;51.946;10.558;2023-02-15T06:15:00;8.33;;;3.93;;
3189;SDS011;1606;51.946;10.558;2023-02-15T06:17:29;9.53;;;4.33;;
3189;SDS011;1606;51.946;10.558;2023-02-15T06:19:57;11.13;;;4.47;;
3189;SDS011;1606;51.946;10.558;2023-02-15T06:22:25;9.43;;;4.67;;
3189;SDS011;1606;51.946;10.558;2023-02-15T06:24:53;10.33;;;4.63;;
3189;SDS011;1606;51.946;10.558;2023-02-15T06:27:20;7.10;;;3.47;;
3189;SDS011;1606;51.946;10.558;2023-02-15T06:29:48;9.97;;;3.70;;
3189;SDS011;1606;51.946;10.558;2023-02-15T06:32:16;9.60;;;4.37;;
3189;SDS011;1606;51.946;10.558;2023-02-15T06:34:45;8.30;;;4.07;;
3189;SDS011;1606;51.946;10.558;2023-02-15T06:37:14;10.47;;;4.03;;
3189;SDS011;1606;51.946;10.558;2023-02-15T06:39:41;9.20;;;4.30;;
3189;SDS011;1606;51.946;10.558;2023-02-15T06:42:10;7.40;;;3.23;;
3189;SDS011;1606;51.946;10.558;2023-02-15T06:44:38;9.23;;;3.87;;
3189;SDS011;1606;51.946;10.558;2023-02-15T06:47:05;8.87;;;4.07;;
3189;SDS011;1606;51.946;10.558;2023-02-15T06:49:33;8.30;;;3.67;;
3189;SDS011;1606;51.946;10.558;2023-02-15T06:52:02;7.70;;;2.90;;
3189;SDS011;1606;51.946;10.558;2023-02-15T06:54:31;11.53;;;5.73;;
3189;SDS011;1606;51.946;10.558;2023-02-15T06:56:59;7.90;;;3.70;;
3189;SDS011;1606;51.946;10.558;2023-02-15T06:59:26;7.80;;;3.53;;
3189;SDS011;1606;51.946;10.558;2023-02-15T07:01:54;10.27;;;3.20;;
3189;SDS011;1606;51.946;10.558;2023-02-15T07:04:22;8.20;;;3.53;;
3189;SDS011;1606;51.946;10.558;2023-02-15T07:06:50;9.80;;;3.27;;
3189;SDS011;1606;51.946;10.558;2023-02-15T07:09:20;7.20;;;3.60;;
3189;SDS011;1606;51.946;10.558;2023-02-15T07:11:48;7.90;;;3.33;;
3189;SDS011;1606;51.946;10.558;2023-02-15T07:14:34;8.70;;;3.60;;
3189;SDS011;1606;51.946;10.558;2023-02-15T07:17:01;8.50;;;3.90;;
3189;SDS011;1606;51.946;10.558;2023-02-15T07:19:30;8.30;;;3.53;;
3189;SDS011;1606;51.946;10.558;2023-02-15T07:21:58;10.27;;;4.07;;
3189;SDS011;1606;51.946;10.558;2023-02-15T07:24:27;8.47;;;3.40;;
3189;SDS011;1606;51.946;10.558;2023-02-15T07:26:55;9.60;;;3.80;;
3189;SDS011;1606;51.946;10.558;2023-02-15T07:29:23;10.47;;;3.70;;
3189;SDS011;1606;51.946;10.558;2023-02-15T07:31:51;8.50;;;3.80;;
3189;SDS011;1606;51.946;10.558;2023-02-15T07:34:19;9.07;;;3.77;;
3189;SDS011;1606;51.946;10.558;2023-02-15T07:36:47;8.30;;;3.50;;
3189;SDS011;1606;51.946;10.558;2023-02-15T07:39:17;9.27;;;3.67;;
3189;SDS011;1606;51.946;10.558;2023-02-15T07:41:46;8.40;;;3.60;;
3189;SDS011;1606;51.946;10.558;2023-02-15T07:44:14;11.57;;;4.70;;
3189;SDS011;1606;51.946;10.558;2023-02-15T07:46:42;10.83;;;3.67;;
3189;SDS011;1606;51.946;10.558;2023-02-15T07:49:10;9.03;;;3.30;;
3189;SDS011;1606;51.946;10.558;2023-02-15T07:51:37;9.73;;;3.63;;
3189;SDS011;1606;51.946;10.558;2023-02-15T07:54:06;9.23;;;3.40;;
3189;SDS011;1606;51.946;10.558;2023-02-15T07:56:34;9.07;;;3.73;;
3189;SDS011;1606;51.946;10.558;2023-02-15T07:59:03;9.70;;;4.13;;
3189;SDS011;1606;51.946;10.558;2023-02-15T08:01:32;9.20;;;3.70;;
3189;SDS011;1606;51.946;10.558;2023-02-15T08:04:01;8.10;;;3.60;;
3189;SDS011;1606;51.946;10.558;2023-02-15T08:06:30;9.80;;;4.70;;
3189;SDS011;1606;51.946;10.558;2023-02-15T08:09:00;10.33;;;4.97;;
3189;SDS011;1606;51.946;10.558;2023-02-15T08:11:31;9.27;;;4.10;;
3189;SDS011;1606;51.946;10.558;2023-02-15T08:14:04;9.67;;;4.83;;
3189;SDS011;1606;51.946;10.558;2023-02-15T08:16:35;11.10;;;4.80;;
3189;SDS011;1606;51.946;10.558;2023-02-15T08:19:05;13.20;;;5.47;;
3189;SDS011;1606;51.946;10.558;2023-02-15T08:21:35;9.60;;;4.80;;
3189;SDS011;1606;51.946;10.558;2023-02-15T08:24:06;10.40;;;5.20;;
3189;SDS011;1606;51.946;10.558;2023-02-15T08:26:35;10.90;;;5.43;;
3189;SDS011;1606;51.946;10.558;2023-02-15T08:29:09;10.00;;;5.30;;
3189;SDS011;1606;51.946;10.558;2023-02-15T08:31:37;10.77;;;5.93;;
3189;SDS011;1606;51.946;10.558;2023-02-15T08:34:07;11.57;;;4.30;;
3189;SDS011;1606;51.946;10.558;2023-02-15T08:36:36;10.63;;;4.43;;
3189;SDS011;1606;51.946;10.558;2023-02-15T08:39:05;11.60;;;4.70;;
3189;SDS011;1606;51.946;10.558;2023-02-15T08:41:35;9.87;;;4.33;;
3189;SDS011;1606;51.946;10.558;2023-02-15T08:44:05;9.57;;;4.40;;
3189;SDS011;1606;51.946;10.558;2023-02-15T08:46:36;10.03;;;4.43;;
3189;SDS011;1606;51.946;10.558;2023-02-15T08:49:04;10.10;;;4.83;;
3189;SDS011;1606;51.946;10.558;2023-02-15T08:51:34;10.00;;;5.33;;
3189;SDS011;1606;51.946;10.558;2023-02-15T08:54:03;12.70;;;6.63;;
3189;SDS011;1606;51.946;10.558;2023-02-15T08:56:32;11.37;;;5.37;;
3189;SDS011;1606;51.946;10.558;2023-02-15T08:59:02;10.80;;;5.07;;
3189;SDS011;1606;51.946;10.558;2023-02-15T09:01:32;11.27;;;5.27;;
3189;SDS011;1606;51.946;10.558;2023-02-15T09:04:03;14.00;;;5.67;;
3189;SDS011;1606;51.946;10.558;2023-02-15T09:06:34;14.53;;;5.87;;
3189;SDS011;1606;51.946;10.558;2023-02-15T09:09:03;20.53;;;7.80;;
3189;SDS011;1606;51.946;10.558;2023-02-15T09:11:33;12.00;;;6.37;;
3189;SDS011;1606;51.946;10.558;2023-02-15T09:14:03;11.57;;;6.43;;
3189;SDS011;1606;51.946;10.558;2023-02-15T09:16:36;11.37;;;6.90;;
3189;SDS011;1606;51.946;10.558;2023-02-15T09:19:05;13.27;;;6.50;;
3189;SDS011;1606;51.946;10.558;2023-02-15T09:21:35;13.50;;;7.23;;
3189;SDS011;1606;51.946;10.558;2023-02-15T09:24:04;15.33;;;6.93;;
3189;SDS011;1606;51.946;10.558;2023-02-15T09:26:34;16.33;;;6.87;;
3189;SDS011;1606;51.946;10.558;2023-02-15T09:29:04;13.13;;;7.20;;
3189;SDS011;1606;51.946;10.558;2023-02-15T09:31:32;12.37;;;5.80;;
3189;SDS011;1606;51.946;10.558;2023-02-15T09:34:03;11.97;;;6.67;;
3189;SDS011;1606;51.946;10.558;2023-02-15T09:36:31;14.10;;;7.63;;
3189;SDS011;1606;51.946;10.558;2023-02-15T09:39:01;24.10;;;16.80;;
3189;SDS011;1606;51.946;10.558;2023-02-15T09:41:36;16.17;;;8.80;;
3189;SDS011;1606;51.946;10.558;2023-02-15T09:44:20;18.17;;;9.60;;
3189;SDS011;1606;51.946;10.558;2023-02-15T09:47:03;19.27;;;10.10;;
3189;SDS011;1606;51.946;10.558;2023-02-15T09:49:47;14.97;;;8.87;;
3189;SDS011;1606;51.946;10.558;2023-02-15T09:52:24;22.20;;;11.30;;
3189;SDS011;1606;51.946;10.558;2023-02-15T09:55:06;18.67;;;11.60;;
3189;SDS011;1606;51.946;10.558;2023-02-15T09:57:46;16.47;;;10.97;;
3189;SDS011;1606;51.946;10.558;2023-02-15T10:00:23;18.27;;;10.90;;
3189;SDS011;1606;51.946;10.558;2023-02-15T10:03:02;15.97;;;10.30;;
3189;SDS011;1606;51.946;10.558;2023-02-15T10:05:41;16.10;;;10.57;;
3189;SDS011;1606;51.946;10.558;2023-02-15T10:11:37;17.90;;;9.87;;
3189;SDS011;1606;51.946;10.558;2023-02-15T10:14:30;15.03;;;8.40;;
3189;SDS011;1606;51.946;10.558;2023-02-15T10:17:26;12.03;;;6.80;;
3189;SDS011;1606;51.946;10.558;2023-02-15T10:20:07;14.67;;;7.57;;
3189;SDS011;1606;51.946;10.558;2023-02-15T10:22:50;13.33;;;7.17;;
3189;SDS011;1606;51.946;10.558;2023-02-15T10:25:31;14.47;;;7.90;;
3189;SDS011;1606;51.946;10.558;2023-02-15T10:28:07;16.83;;;9.20;;
3189;SDS011;1606;51.946;10.558;2023-02-15T10:30:43;15.40;;;7.70;;
3189;SDS011;1606;51.946;10.558;2023-02-15T10:33:23;12.53;;;7.00;;
3189;SDS011;1606;51.946;10.558;2023-02-15T10:36:04;11.00;;;6.60;;
3189;SDS011;1606;51.946;10.558;2023-02-15T10:38:46;10.80;;;6.40;;
3189;SDS011;1606;51.946;10.558;2023-02-15T10:41:20;11.50;;;6.00;;
3189;SDS011;1606;51.946;10.558;2023-02-15T10:44:02;11.40;;;5.80;;
3189;SDS011;1606;51.946;10.558;2023-02-15T10:46:46;10.43;;;5.17;;
3189;SDS011;1606;51.946;10.558;2023-02-15T10:49:34;10.17;;;6.10;;
3189;SDS011;1606;51.946;10.558;2023-02-15T10:52:19;10.33;;;5.00;;
3189;SDS011;1606;51.946;10.558;2023-02-15T10:55:00;11.90;;;5.07;;
3189;SDS011;1606;51.946;10.558;2023-02-15T10:57:38;9.37;;;5.40;;
3189;SDS011;1606;51.946;10.558;2023-02-15T11:00:16;10.20;;;5.37;;
3189;SDS011;1606;51.946;10.558;2023-02-15T11:02:54;12.23;;;5.30;;
3189;SDS011;1606;51.946;10.558;2023-02-15T11:05:39;11.40;;;5.50;;
3189;SDS011;1606;51.946;10.558;2023-02-15T11:08:15;10.57;;;6.10;;
3189;SDS011;1606;51.946;10.558;2023-02-15T11:10:47;11.07;;;5.03;;
3189;SDS011;1606;51.946;10.558;2023-02-15T11:13:19;9.83;;;5.80;;
3189;SDS011;1606;51.946;10.558;2023-02-15T11:15:51;10.30;;;5.90;;
3189;SDS011;1606;51.946;10.558;2023-02-15T11:18:25;11.30;;;5.43;;
3189;SDS011;1606;51.946;10.558;2023-02-15T11:20:59;10.80;;;6.33;;
3189;SDS011;1606;51.946;10.558;2023-02-15T11:23:30;12.43;;;5.73;;
3189;SDS011;1606;51.946;10.558;2023-02-15T11:26:04;12.27;;;6.23;;
3189;SDS011;1606;51.946;10.558;2023-02-15T11:28:38;11.27;;;6.17;;
3189;SDS011;1606;51.946;10.558;2023-02-15T11:31:12;10.33;;;6.70;;
3189;SDS011;1606;51.946;10.558;2023-02-15T11:33:43;8.80;;;4.97;;
3189;SDS011;1606;51.946;10.558;2023-02-15T11:36:15;9.27;;;5.20;;
3189;SDS011;1606;51.946;10.558;2023-02-15T11:38:48;9.90;;;5.20;;
3189;SDS011;1606;51.946;10.558;2023-02-15T11:41:23;9.53;;;5.30;;
3189;SDS011;1606;51.946;10.558;2023-02-15T11:43:55;9.07;;;4.57;;
3189;SDS011;1606;51.946;10.558;2023-02-15T11:46:27;10.50;;;4.90;;
3189;SDS011;1606;51.946;10.558;2023-02-15T11:48:55;8.97;;;4.50;;
3189;SDS011;1606;51.946;10.558;2023-02-15T11:51:24;9.00;;;5.23;;
3189;SDS011;1606;51.946;10.558;2023-02-15T11:53:54;13.87;;;4.83;;
3189;SDS011;1606;51.946;10.558;2023-02-15T11:56:25;9.50;;;5.27;;
3189;SDS011;1606;51.946;10.558;2023-02-15T11:58:54;10.60;;;5.70;;
3189;SDS011;1606;51.946;10.558;2023-02-15T12:01:28;10.73;;;4.93;;
3189;SDS011;1606;51.946;10.558;2023-02-15T12:03:59;9.60;;;5.57;;
3189;SDS011;1606;51.946;10.558;2023-02-15T12:06:32;10.10;;;5.87;;
3189;SDS011;1606;51.946;10.558;2023-02-15T12:09:05;9.53;;;5.10;;
3189;SDS011;1606;51.946;10.558;2023-02-15T12:11:41;11.20;;;6.30;;
3189;SDS011;1606;51.946;10.558;2023-02-15T12:14:10;10.20;;;5.93;;
3189;SDS011;1606;51.946;10.558;2023-02-15T12:16:42;8.63;;;5.07;;
3189;SDS011;1606;51.946;10.558;2023-02-15T12:19:24;9.50;;;5.10;;
3189;SDS011;1606;51.946;10.558;2023-02-15T12:21:57;15.70;;;5.60;;
3189;SDS011;1606;51.946;10.558;2023-02-15T12:24:27;10.10;;;5.70;;
3189;SDS011;1606;51.946;10.558;2023-02-15T12:26:59;9.20;;;5.63;;
3189;SDS011;1606;51.946;10.558;2023-02-15T12:29:29;9.70;;;5.33;;
3189;SDS011;1606;51.946;10.558;2023-02-15T12:32:01;9.70;;;5.10;;
3189;SDS011;1606;51.946;10.558;2023-02-15T12:34:32;10.20;;;5.30;;
3189;SDS011;1606;51.946;10.558;2023-02-15T12:37:14;9.57;;;5.67;;
3189;SDS011;1606;51.946;10.558;2023-02-15T12:39:50;10.17;;;5.97;;
3189;SDS011;1606;51.946;10.558;2023-02-15T12:42:21;10.50;;;5.20;;
3189;SDS011;1606;51.946;10.558;2023-02-15T12:44:54;9.87;;;6.50;;
3189;SDS011;1606;51.946;10.558;2023-02-15T12:47:24;10.97;;;6.93;;
3189;SDS011;1606;51.946;10.558;2023-02-15T12:50:08;10.83;;;6.97;;
3189;SDS011;1606;51.946;10.558;2023-02-15T12:52:43;11.40;;;6.00;;
3189;SDS011;1606;51.946;10.558;2023-02-15T12:55:22;10.27;;;6.17;;
3189;SDS011;1606;51.946;10.558;2023-02-15T12:58:06;13.80;;;7.90;;
3189;SDS011;1606;51.946;10.558;2023-02-15T13:00:35;12.33;;;7.20;;
3189;SDS011;1606;51.946;10.558;2023-02-15T13:03:03;11.13;;;6.30;;
3189;SDS011;1606;51.946;10.558;2023-02-15T13:05:32;15.80;;;6.80;;
3189;SDS011;1606;51.946;10.558;2023-02-15T13:08:08;12.03;;;7.67;;
3189;SDS011;1606;51.946;10.558;2023-02-15T13:10:40;12.50;;;7.50;;
3189;SDS011;1606;51.946;10.558;2023-02-15T13:13:11;13.17;;;6.97;;
3189;SDS011;1606;51.946;10.558;2023-02-15T13:15:48;13.53;;;6.63;;
3189;SDS011;1606;51.946;10.558;2023-02-15T13:18:19;13.53;;;7.47;;
3189;SDS011;1606;51.946;10.558;2023-02-15T13:20:55;11.53;;;6.47;;
3189;SDS011;1606;51.946;10.558;2023-02-15T13:23:26;12.87;;;7.23;;
3189;SDS011;1606;51.946;10.558;2023-02-15T13:25:55;11.20;;;6.60;;
3189;SDS011;1606;51.946;10.558;2023-02-15T13:28:27;11.77;;;7.10;;
3189;SDS011;1606;51.946;10.558;2023-02-15T13:31:04;12.80;;;6.43;;
3189;SDS011;1606;51.946;10.558;2023-02-15T13:33:40;9.70;;;5.30;;
3189;SDS011;1606;51.946;10.558;2023-02-15T13:36:12;10.70;;;5.60;;
3189;SDS011;1606;51.946;10.558;2023-02-15T13:38:47;9.93;;;6.23;;
3189;SDS011;1606;51.946;10.558;2023-02-15T13:41:23;11.07;;;5.97;;
3189;SDS011;1606;51.946;10.558;2023-02-15T13:44:18;11.13;;;6.77;;
3189;SDS011;1606;51.946;10.558;2023-02-15T13:46:56;10.47;;;6.43;;
3189;SDS011;1606;51.946;10.558;2023-02-15T13:49:34;11.00;;;6.57;;
3189;SDS011;1606;51.946;10.558;2023-02-15T13:52:16;12.83;;;6.47;;
3189;SDS011;1606;51.946;10.558;2023-02-15T13:54:53;11.27;;;6.40;;
3189;SDS011;1606;51.946;10.558;2023-02-15T13:57:40;12.80;;;6.90;;
3189;SDS011;1606;51.946;10.558;2023-02-15T14:00:22;12.97;;;7.33;;
3189;SDS011;1606;51.946;10.558;2023-02-15T14:03:02;12.67;;;7.00;;
3189;SDS011;1606;51.946;10.558;2023-02-15T14:06:00;13.10;;;7.60;;
3189;SDS011;1606;51.946;10.558;2023-02-15T14:08:44;11.30;;;6.37;;
3189;SDS011;1606;51.946;10.558;2023-02-15T14:11:24;10.20;;;6.60;;
3189;SDS011;1606;51.946;10.558;2023-02-15T14:14:08;14.30;;;6.50;;
3189;SDS011;1606;51.946;10.558;2023-02-15T14:16:48;10.60;;;6.33;;
3189;SDS011;1606;51.946;10.558;2023-02-15T14:19:34;10.63;;;5.60;;
3189;SDS011;1606;51.946;10.558;2023-02-15T14:22:09;9.70;;;5.97;;
3189;SDS011;1606;51.946;10.558;2023-02-15T14:24:43;13.20;;;5.83;;
3189;SDS011;1606;51.946;10.558;2023-02-15T14:27:18;11.53;;;5.97;;
3189;SDS011;1606;51.946;10.558;2023-02-15T14:29:53;9.50;;;5.30;;
3189;SDS011;1606;51.946;10.558;2023-02-15T14:32:27;14.80;;;6.67;;
3189;SDS011;1606;51.946;10.558;2023-02-15T14:35:01;13.17;;;6.57;;
3189;SDS011;1606;51.946;10.558;2023-02-15T14:37:34;12.60;;;5.97;;
3189;SDS011;1606;51.946;10.558;2023-02-15T14:40:08;12.00;;;6.40;;
3189;SDS011;1606;51.946;10.558;2023-02-15T14:43:04;10.70;;;6.90;;
3189;SDS011;1606;51.946;10.558;2023-02-15T14:45:39;17.10;;;7.63;;
3189;SDS011;1606;51.946;10.558;2023-02-15T14:48:18;10.97;;;6.17;;
3189;SDS011;1606;51.946;10.558;2023-02-15T14:50:51;12.50;;;6.07;;
3189;SDS011;1606;51.946;10.558;2023-02-15T14:56:14;12.10;;;6.47;;
3189;SDS011;1606;51.946;10.558;2023-02-15T14:58:58;10.93;;;6.30;;
3189;SDS011;1606;51.946;10.558;2023-02-15T15:01:40;13.30;;;7.23;;
3189;SDS011;1606;51.946;10.558;2023-02-15T15:04:11;15.10;;;7.07;;
3189;SDS011;1606;51.946;10.558;2023-02-15T15:06:56;15.13;;;8.60;;
3189;SDS011;1606;51.946;10.558;2023-02-15T15:09:27;10.33;;;6.27;;
3189;SDS011;1606;51.946;10.558;2023-02-15T15:12:06;11.47;;;6.93;;
3189;SDS011;1606;51.946;10.558;2023-02-15T15:14:42;12.77;;;7.27;;
3189;SDS011;1606;51.946;10.558;2023-02-15T15:17:12;12.97;;;7.20;;
3189;SDS011;1606;51.946;10.558;2023-02-15T15:20:12;12.77;;;6.53;;
3189;SDS011;1606;51.946;10.558;2023-02-15T15:22:42;12.63;;;7.17;;
3189;SDS011;1606;51.946;10.558;2023-02-15T15:25:11;11.53;;;6.40;;
3189;SDS011;1606;51.946;10.558;2023-02-15T15:27:54;12.30;;;7.40;;
3189;SDS011;1606;51.946;10.558;2023-02-15T15:36:53;13.53;;;7.43;;
3189;SDS011;1606;51.946;10.558;2023-02-15T15:43:13;14.07;;;7.47;;